MSC Claudia — 3FZA6 — position and weather

sailwx.info

Track history (hours):
 
Tides and Currents Weather Stations Pressure Air Temp Water Temp Dewpoint Dewpoint Depression Visibility Wind Speed Wind Dir Waves Ship Positions

MSC Claudia

Last reported at 2014-Oct-17 19:13 UTC. Time now 2014-Oct-22 21:46 UTC.
Position N 46°38' W 071°56'.

Length 292 m; draft 9.6 m.

Type: Ship (hazmat cat A). MMSI: 370606000.

Date/timePositionNaut miles runAvg speedWind from/ knotsBaromVisibWave heightAir tempDewpointWater temp
2014-Oct-17 19:13N 46°38' W 071°56'1015.4
2014-Oct-17 18:34N 46°33' W 072°09'1413.9
2014-Oct-17 17:33N 46°24' W 072°25'1111.4
2014-Oct-17 16:33N 46°16' W 072°37'1413.5
2014-Oct-17 15:33N 46°11' W 072°55'1512.8
2014-Oct-17 14:21N 46°00' W 073°11'1113.7
2014-Oct-17 13:33N 45°50' W 073°17'1312.9
2014-Oct-17 12:33N 45°40' W 073°28'5 5.4
2014-Oct-17 11:33N 45°34' W 073°31'0 0.1
2014-Oct-17 10:33N 45°34' W 073°31'0 0.0
2014-Oct-17 09:33N 45°34' W 073°31'0 0.0
2014-Oct-17 08:33N 45°34' W 073°31'0 0.0
2014-Oct-17 07:33N 45°34' W 073°31'0 0.0
2014-Oct-17 06:33N 45°34' W 073°31'0 0.0
2014-Oct-17 05:33N 45°34' W 073°31'0 0.0
2014-Oct-17 04:33N 45°34' W 073°31'0 0.0
2014-Oct-17 03:33N 45°34' W 073°31'0 0.0
2014-Oct-17 02:33N 45°34' W 073°31'0 0.0
2014-Oct-17 01:33N 45°34' W 073°31'0 0.0
2014-Oct-17 00:33N 45°34' W 073°31'0 0.0
2014-Oct-16 23:33N 45°34' W 073°31'0 0.0
2014-Oct-16 22:33N 45°34' W 073°31'0 0.0
2014-Oct-16 21:30N 45°34' W 073°31'0 0.0
2014-Oct-16 20:33N 45°34' W 073°31'0 0.0
2014-Oct-16 07:33N 45°34' W 073°31'0 0.0
2014-Oct-16 06:33N 45°34' W 073°31'0 0.0
2014-Oct-16 05:33N 45°34' W 073°31'0 0.0
2014-Oct-16 04:33N 45°34' W 073°31'0 0.0
2014-Oct-16 03:33N 45°34' W 073°31'0 0.0
2014-Oct-16 02:32N 45°34' W 073°31'0 0.0
2014-Oct-16 01:32N 45°34' W 073°31'0 0.0
2014-Oct-16 00:32N 45°34' W 073°31'0 0.0
2014-Oct-15 23:32N 45°34' W 073°31'0 0.0
2014-Oct-15 22:32N 45°34' W 073°31'0 0.0
2014-Oct-15 21:32N 45°34' W 073°31'0 0.0
2014-Oct-15 20:32N 45°34' W 073°31'0 0.0
2014-Oct-15 19:32N 45°34' W 073°31'0 0.0
2014-Oct-15 18:32N 45°34' W 073°31'0 0.0
2014-Oct-15 17:32N 45°34' W 073°31'4 4.0
2014-Oct-15 16:34N 45°38' W 073°29'9 8.8
2014-Oct-15 15:34N 45°46' W 073°23'9 9.4
2014-Oct-15 14:34N 45°53' W 073°15'13 8.9
2014-Oct-15 13:06N 46°04' W 073°04'7 9.4
2014-Oct-15 12:20N 46°09' W 072°57'810.2
2014-Oct-15 11:33N 46°13' W 072°47'10 9.6
2014-Oct-15 10:33N 46°18' W 072°35'9 9.0
2014-Oct-15 09:33N 46°24' W 072°25'9 9.3
2014-Oct-15 08:34N 46°29' W 072°14'  
2014-Oct-10 08:33N 39°58' W 029°15'1918.8
2014-Oct-10 07:33N 39°57' W 028°50'1918.9
2014-Oct-10 06:33N 39°55' W 028°26'2019.1
2014-Oct-10 05:32N 39°54' W 027°60'85518.1
2014-Oct-08 06:20N 37°60' W 009°50'1316.1
2014-Oct-08 05:33N 37°58' W 009°34'1616.5
2014-Oct-08 04:33N 37°56' W 009°13'1514.6
2014-Oct-08 03:33N 37°54' W 008°55'4 3.9
2014-Oct-08 02:32N 37°56' W 008°51'0 0.0
2014-Oct-08 01:32N 37°56' W 008°51'0 0.0
2014-Oct-08 00:32N 37°56' W 008°51'0 0.0
2014-Oct-07 23:32N 37°56' W 008°51'0 0.0
2014-Oct-07 22:32N 37°56' W 008°51'0 0.0
2014-Oct-07 21:32N 37°56' W 008°51'0 0.0
2014-Oct-07 20:32N 37°56' W 008°51'0 0.0
2014-Oct-07 19:32N 37°56' W 008°51'  
Track history (hours):
 
Tides and Currents Weather Stations Pressure Air Temp Water Temp Dewpoint Dewpoint Depression Visibility Wind Speed Wind Dir Waves Ship Positions

MSC Claudia

Last reported at 2014-Oct-17 19:13 UTC. Time now 2014-Oct-22 21:46 UTC.
Position N 46°38' W 071°56'.

Length 292 m; draft 9.6 m.

Type: Ship (hazmat cat A). MMSI: 370606000.

Date/timePositionNaut miles runAvg speedWind from/ knotsBaromVisibWave heightAir tempDewpointWater temp
2014-Oct-17 19:13N 46°38' W 071°56'1015.4
2014-Oct-17 18:34N 46°33' W 072°09'1413.9
2014-Oct-17 17:33N 46°24' W 072°25'1111.4
2014-Oct-17 16:33N 46°16' W 072°37'1413.5
2014-Oct-17 15:33N 46°11' W 072°55'1512.8
2014-Oct-17 14:21N 46°00' W 073°11'1113.7
2014-Oct-17 13:33N 45°50' W 073°17'1312.9
2014-Oct-17 12:33N 45°40' W 073°28'5 5.4
2014-Oct-17 11:33N 45°34' W 073°31'0 0.1
2014-Oct-17 10:33N 45°34' W 073°31'0 0.0
2014-Oct-17 09:33N 45°34' W 073°31'0 0.0
2014-Oct-17 08:33N 45°34' W 073°31'0 0.0
2014-Oct-17 07:33N 45°34' W 073°31'0 0.0
2014-Oct-17 06:33N 45°34' W 073°31'0 0.0
2014-Oct-17 05:33N 45°34' W 073°31'0 0.0
2014-Oct-17 04:33N 45°34' W 073°31'0 0.0
2014-Oct-17 03:33N 45°34' W 073°31'0 0.0
2014-Oct-17 02:33N 45°34' W 073°31'0 0.0
2014-Oct-17 01:33N 45°34' W 073°31'0 0.0
2014-Oct-17 00:33N 45°34' W 073°31'0 0.0
2014-Oct-16 23:33N 45°34' W 073°31'0 0.0
2014-Oct-16 22:33N 45°34' W 073°31'0 0.0
2014-Oct-16 21:30N 45°34' W 073°31'0 0.0
2014-Oct-16 20:33N 45°34' W 073°31'0 0.0
2014-Oct-16 07:33N 45°34' W 073°31'0 0.0
2014-Oct-16 06:33N 45°34' W 073°31'0 0.0
2014-Oct-16 05:33N 45°34' W 073°31'0 0.0
2014-Oct-16 04:33N 45°34' W 073°31'0 0.0
2014-Oct-16 03:33N 45°34' W 073°31'0 0.0
2014-Oct-16 02:32N 45°34' W 073°31'0 0.0
2014-Oct-16 01:32N 45°34' W 073°31'0 0.0
2014-Oct-16 00:32N 45°34' W 073°31'0 0.0
2014-Oct-15 23:32N 45°34' W 073°31'0 0.0
2014-Oct-15 22:32N 45°34' W 073°31'0 0.0
2014-Oct-15 21:32N 45°34' W 073°31'0 0.0
2014-Oct-15 20:32N 45°34' W 073°31'0 0.0
2014-Oct-15 19:32N 45°34' W 073°31'0 0.0
2014-Oct-15 18:32N 45°34' W 073°31'0 0.0
2014-Oct-15 17:32N 45°34' W 073°31'4 4.0
2014-Oct-15 16:34N 45°38' W 073°29'9 8.8
2014-Oct-15 15:34N 45°46' W 073°23'9 9.4
2014-Oct-15 14:34N 45°53' W 073°15'13 8.9
2014-Oct-15 13:06N 46°04' W 073°04'7 9.4
2014-Oct-15 12:20N 46°09' W 072°57'810.2
2014-Oct-15 11:33N 46°13' W 072°47'10 9.6
2014-Oct-15 10:33N 46°18' W 072°35'9 9.0
2014-Oct-15 09:33N 46°24' W 072°25'9 9.3
2014-Oct-15 08:34N 46°29' W 072°14'  
2014-Oct-10 08:33N 39°58' W 029°15'1918.8
2014-Oct-10 07:33N 39°57' W 028°50'1918.9
2014-Oct-10 06:33N 39°55' W 028°26'2019.1
2014-Oct-10 05:32N 39°54' W 027°60'85518.1
2014-Oct-08 06:20N 37°60' W 009°50'1316.1
2014-Oct-08 05:33N 37°58' W 009°34'1616.5
2014-Oct-08 04:33N 37°56' W 009°13'1514.6
2014-Oct-08 03:33N 37°54' W 008°55'4 3.9
2014-Oct-08 02:32N 37°56' W 008°51'0 0.0
2014-Oct-08 01:32N 37°56' W 008°51'0 0.0
2014-Oct-08 00:32N 37°56' W 008°51'0 0.0
2014-Oct-07 23:32N 37°56' W 008°51'0 0.0
2014-Oct-07 22:32N 37°56' W 008°51'0 0.0
2014-Oct-07 21:32N 37°56' W 008°51'0 0.0
2014-Oct-07 20:32N 37°56' W 008°51'0 0.0
2014-Oct-07 19:32N 37°56' W 008°51'  

Dump ship's entire track history